createdAt,value
2023-04-16T00:00:46.402Z,930.03
2023-04-16T00:01:46.631Z,930.02
2023-04-16T00:02:46.548Z,930.02
2023-04-16T00:03:46.641Z,930.02
2023-04-16T00:04:46.431Z,930.01
2023-04-16T00:05:47.215Z,930.03
2023-04-16T00:06:46.303Z,930.02
2023-04-16T00:07:46.301Z,930.03
2023-04-16T00:08:46.310Z,930.02
2023-04-16T00:09:46.336Z,930.03
2023-04-16T00:10:46.437Z,930.06
2023-04-16T00:11:46.868Z,930.06
2023-04-16T00:12:46.252Z,930.07
2023-04-16T00:13:46.234Z,930.07
2023-04-16T00:14:46.274Z,930.07
2023-04-16T00:15:46.275Z,930.07
2023-04-16T00:16:46.849Z,930.08
2023-04-16T00:17:46.206Z,930.11
2023-04-16T00:18:46.197Z,930.13
2023-04-16T00:19:46.180Z,930.12
2023-04-16T00:20:46.520Z,930.14
2023-04-16T00:21:46.207Z,930.14
2023-04-16T00:22:46.202Z,930.15
2023-04-16T00:23:46.464Z,930.16
2023-04-16T00:24:46.127Z,930.15
2023-04-16T00:25:46.119Z,930.16
2023-04-16T00:26:46.147Z,930.16
2023-04-16T00:27:46.135Z,930.15
2023-04-16T00:28:46.182Z,930.13
2023-04-16T00:29:46.134Z,930.12
2023-04-16T00:30:46.094Z,930.12
2023-04-16T00:31:46.047Z,930.13
2023-04-16T00:32:46.090Z,930.13
2023-04-16T00:33:46.069Z,930.12
2023-04-16T00:34:46.057Z,930.15
2023-04-16T00:35:45.990Z,930.16
2023-04-16T00:36:45.994Z,930.11
2023-04-16T00:37:45.990Z,930.11
2023-04-16T00:38:45.989Z,930.11
2023-04-16T00:39:46.010Z,930.10
2023-04-16T00:40:46.058Z,930.09
2023-04-16T00:41:45.927Z,930.09
2023-04-16T00:42:45.940Z,930.07
2023-04-16T00:43:45.935Z,930.08
2023-04-16T00:44:45.931Z,930.07
2023-04-16T00:45:45.964Z,930.07
2023-04-16T00:46:45.993Z,930.07
2023-04-16T00:47:46.138Z,930.07
2023-04-16T00:48:45.908Z,930.06
2023-04-16T00:49:45.862Z,930.06
2023-04-16T00:50:45.896Z,930.06
2023-04-16T00:51:45.932Z,930.06
2023-04-16T00:52:45.881Z,930.05
2023-04-16T00:53:45.803Z,930.05
2023-04-16T00:54:45.800Z,930.04
2023-04-16T00:55:45.756Z,930.05
2023-04-16T00:56:45.802Z,930.07
2023-04-16T00:57:45.827Z,930.08
2023-04-16T00:58:45.845Z,930.08
2023-04-16T00:59:45.742Z,930.11
2023-04-16T01:00:45.717Z,930.12
2023-04-16T01:01:45.733Z,930.13
2023-04-16T01:02:45.934Z,930.13
2023-04-16T01:03:45.836Z,930.12
2023-04-16T01:04:45.708Z,930.09
2023-04-16T01:05:45.674Z,930.14
2023-04-16T01:06:45.659Z,930.14
2023-04-16T01:07:45.625Z,930.15
2023-04-16T01:08:46.297Z,930.13
2023-04-16T01:09:45.619Z,930.12
2023-04-16T01:10:45.631Z,930.13
2023-04-16T01:11:45.617Z,930.13
2023-04-16T01:12:45.652Z,930.08
2023-04-16T01:13:45.650Z,930.09
2023-04-16T01:14:45.635Z,930.02
2023-04-16T01:15:45.778Z,930.02
2023-04-16T01:16:45.566Z,930.00
2023-04-16T01:17:45.614Z,929.98
2023-04-16T01:18:45.578Z,929.97
2023-04-16T01:19:45.584Z,929.96
2023-04-16T01:20:45.567Z,929.95
2023-04-16T01:21:45.602Z,929.94
2023-04-16T01:22:45.501Z,929.92
2023-04-16T01:23:45.551Z,929.94
2023-04-16T01:24:45.496Z,929.95
2023-04-16T01:25:45.703Z,929.97
2023-04-16T01:26:45.516Z,929.95
2023-04-16T01:27:45.449Z,930.01
2023-04-16T01:28:45.441Z,929.99
2023-04-16T01:29:45.427Z,929.98
2023-04-16T01:30:45.445Z,929.98
2023-04-16T01:31:45.533Z,929.98
2023-04-16T01:32:45.477Z,930.00
2023-04-16T01:33:45.370Z,930.00
2023-04-16T01:34:45.388Z,930.03
2023-04-16T01:35:45.918Z,930.03
2023-04-16T01:36:45.402Z,930.03
2023-04-16T01:37:45.384Z,930.02
2023-04-16T01:38:45.400Z,930.03
2023-04-16T01:39:45.315Z,930.03
2023-04-16T01:40:45.314Z,930.00
2023-04-16T01:41:45.344Z,930.00
2023-04-16T01:42:45.320Z,929.98
2023-04-16T01:43:45.337Z,929.97
2023-04-16T01:44:45.340Z,929.97
2023-04-16T01:45:45.271Z,929.98
2023-04-16T01:46:45.334Z,930.00
2023-04-16T01:47:45.329Z,930.00
2023-04-16T01:48:45.274Z,929.98
2023-04-16T01:49:45.286Z,929.94
2023-04-16T01:50:45.263Z,929.90
2023-04-16T01:51:45.193Z,929.87
2023-04-16T01:52:45.276Z,929.84
2023-04-16T01:53:45.193Z,929.82
2023-04-16T01:54:45.246Z,929.80
2023-04-16T01:55:45.193Z,929.79
2023-04-16T01:56:45.224Z,929.79
2023-04-16T01:57:45.129Z,929.79
2023-04-16T01:58:45.120Z,929.78
2023-04-16T01:59:45.239Z,929.77
2023-04-16T02:00:45.198Z,929.76
2023-04-16T02:01:45.144Z,929.76
2023-04-16T02:02:45.175Z,929.74
2023-04-16T02:03:45.346Z,929.73
2023-04-16T02:04:45.085Z,929.71
2023-04-16T02:05:45.077Z,929.70
2023-04-16T02:06:45.072Z,929.70
2023-04-16T02:07:45.071Z,929.68
2023-04-16T02:08:45.010Z,929.65
2023-04-16T02:09:45.004Z,929.66
2023-04-16T02:10:45.005Z,929.67
2023-04-16T02:11:45.610Z,929.68
2023-04-16T02:12:45.018Z,929.67
2023-04-16T02:13:45.012Z,929.67
2023-04-16T02:14:45.053Z,929.65
2023-04-16T02:15:44.951Z,929.66
2023-04-16T02:16:45.054Z,929.67
2023-04-16T02:17:44.998Z,929.66
2023-04-16T02:18:44.964Z,929.67
2023-04-16T02:19:45.046Z,929.71
2023-04-16T02:20:45.777Z,929.70
2023-04-16T02:21:44.965Z,929.71
2023-04-16T02:22:44.864Z,929.70
2023-04-16T02:23:44.880Z,929.74
2023-04-16T02:24:44.893Z,929.70
2023-04-16T02:25:44.883Z,929.73
2023-04-16T02:26:44.931Z,929.68
2023-04-16T02:27:44.822Z,929.67
2023-04-16T02:28:44.908Z,929.65
2023-04-16T02:29:44.817Z,929.63
2023-04-16T02:30:44.850Z,929.61
2023-04-16T02:31:44.931Z,929.58
2023-04-16T02:32:44.890Z,929.64
2023-04-16T02:33:44.758Z,929.60
2023-04-16T02:34:44.758Z,929.58
2023-04-16T02:35:45.359Z,929.61
2023-04-16T02:36:44.787Z,929.59
2023-04-16T02:37:44.786Z,929.57
2023-04-16T02:38:44.695Z,929.60
2023-04-16T02:39:45.508Z,929.59
2023-04-16T02:40:44.698Z,929.59
2023-04-16T02:41:44.706Z,929.61
2023-04-16T02:42:45.228Z,929.63
2023-04-16T02:43:45.318Z,929.64
2023-04-16T02:44:44.636Z,929.64
2023-04-16T02:45:44.749Z,929.64
2023-04-16T02:46:44.660Z,929.65
2023-04-16T02:47:44.701Z,929.65
2023-04-16T02:48:44.656Z,929.64
2023-04-16T02:49:44.570Z,929.65
2023-04-16T02:50:44.579Z,929.67
2023-04-16T02:51:44.585Z,929.64
2023-04-16T02:52:44.581Z,929.63
2023-04-16T02:53:44.585Z,929.64
2023-04-16T02:54:44.495Z,929.64
2023-04-16T02:55:44.482Z,929.63
2023-04-16T02:56:44.512Z,929.63
2023-04-16T02:57:44.465Z,929.63
2023-04-16T02:58:44.526Z,929.64
2023-04-16T02:59:44.521Z,929.63
2023-04-16T03:00:44.492Z,929.63
2023-04-16T03:01:44.461Z,929.63
2023-04-16T03:02:44.557Z,929.61
2023-04-16T03:03:44.429Z,929.59
2023-04-16T03:04:44.504Z,929.57
2023-04-16T03:05:44.438Z,929.54
2023-04-16T03:06:44.459Z,929.53
2023-04-16T03:07:44.380Z,929.52
2023-04-16T03:08:44.369Z,929.51
2023-04-16T03:09:44.376Z,929.50
2023-04-16T03:10:44.381Z,929.52
2023-04-16T03:11:44.372Z,929.54
2023-04-16T03:12:44.369Z,929.53
2023-04-16T03:13:44.320Z,929.52
2023-04-16T03:14:44.294Z,929.51
2023-04-16T03:15:44.340Z,929.50
2023-04-16T03:16:44.947Z,929.49
2023-04-16T03:17:44.322Z,929.48
2023-04-16T03:18:44.304Z,929.47
2023-04-16T03:19:44.240Z,929.46
2023-04-16T03:20:44.273Z,929.45
2023-04-16T03:21:44.331Z,929.44
2023-04-16T03:22:44.256Z,929.44
2023-04-16T03:23:44.205Z,929.44
2023-04-16T03:24:44.219Z,929.45
2023-04-16T03:25:44.250Z,929.46
2023-04-16T03:26:44.190Z,929.47
2023-04-16T03:27:44.202Z,929.47
2023-04-16T03:28:44.219Z,929.46
2023-04-16T03:29:44.152Z,929.44
2023-04-16T03:30:44.146Z,929.42
2023-04-16T03:31:44.189Z,929.40
2023-04-16T03:32:44.176Z,929.39
2023-04-16T03:33:44.132Z,929.39
2023-04-16T03:34:44.145Z,929.39
2023-04-16T03:35:44.078Z,929.41
2023-04-16T03:36:44.125Z,929.41
2023-04-16T03:37:44.228Z,929.40
2023-04-16T03:38:44.173Z,929.39
2023-04-16T03:39:44.039Z,929.39
2023-04-16T03:40:44.041Z,929.38
2023-04-16T03:41:44.062Z,929.38
2023-04-16T03:42:44.034Z,929.39
2023-04-16T03:43:44.039Z,929.37
2023-04-16T03:44:44.004Z,929.35
2023-04-16T03:45:43.983Z,929.35
2023-04-16T03:46:44.036Z,929.34
2023-04-16T03:47:43.946Z,929.34
2023-04-16T03:48:43.928Z,929.30
2023-04-16T03:49:44.003Z,929.28
2023-04-16T03:50:43.910Z,929.26
2023-04-16T03:51:43.913Z,929.22
2023-04-16T03:52:43.943Z,929.24
2023-04-16T03:53:43.938Z,929.22
2023-04-16T03:54:43.945Z,929.21
2023-04-16T03:55:43.914Z,929.18
2023-04-16T03:56:43.849Z,929.18
2023-04-16T03:57:43.895Z,929.16
2023-04-16T03:58:43.903Z,929.15
2023-04-16T03:59:43.811Z,929.12
2023-04-16T04:00:43.810Z,929.11
2023-04-16T04:01:43.878Z,929.11
2023-04-16T04:02:43.911Z,929.10
2023-04-16T04:03:44.064Z,929.08
2023-04-16T04:04:43.827Z,929.09
2023-04-16T04:05:43.772Z,929.05
2023-04-16T04:06:43.752Z,929.05
2023-04-16T04:07:43.756Z,929.03
2023-04-16T04:08:43.727Z,928.99
2023-04-16T04:09:43.787Z,928.97
2023-04-16T04:10:43.676Z,928.93
2023-04-16T04:11:43.708Z,928.89
2023-04-16T04:12:43.713Z,928.88
2023-04-16T04:13:43.698Z,928.86
2023-04-16T04:14:43.688Z,928.85
2023-04-16T04:15:43.680Z,928.84
2023-04-16T04:16:44.326Z,928.85
2023-04-16T04:17:43.693Z,928.84
2023-04-16T04:18:44.538Z,928.84
2023-04-16T04:19:54.227Z,928.85
2023-04-16T04:20:44.190Z,928.86
2023-04-16T04:21:43.614Z,928.85
2023-04-16T04:22:43.611Z,928.85
2023-04-16T04:23:43.632Z,928.86
2023-04-16T04:24:43.650Z,928.86
2023-04-16T04:25:43.652Z,928.84
2023-04-16T04:26:43.547Z,928.84
2023-04-16T04:27:43.653Z,928.84
2023-04-16T04:28:43.576Z,928.83
2023-04-16T04:29:43.562Z,928.80
2023-04-16T04:30:43.565Z,928.80
2023-04-16T04:31:43.597Z,928.78
2023-04-16T04:32:43.550Z,928.76
2023-04-16T04:33:43.515Z,928.75
2023-04-16T04:34:43.411Z,928.75
2023-04-16T04:35:43.423Z,928.70
2023-04-16T04:36:43.426Z,928.68
2023-04-16T04:37:43.442Z,928.70
2023-04-16T04:38:43.551Z,928.67
2023-04-16T04:39:43.331Z,928.68
2023-04-16T04:40:43.325Z,928.68
2023-04-16T04:41:43.409Z,928.67
2023-04-16T04:42:43.314Z,928.68
2023-04-16T04:43:43.730Z,928.67
2023-04-16T04:44:43.355Z,928.66
2023-04-16T04:45:44.105Z,928.64
2023-04-16T04:46:43.290Z,928.62
2023-04-16T04:47:43.312Z,928.60
2023-04-16T04:48:43.275Z,928.57
2023-04-16T04:49:43.387Z,928.55
2023-04-16T04:50:43.282Z,928.54
2023-04-16T04:51:43.317Z,928.52
2023-04-16T04:52:43.202Z,928.51
2023-04-16T04:53:43.241Z,928.52
2023-04-16T04:54:43.235Z,928.50
2023-04-16T04:55:43.220Z,928.51
2023-04-16T04:56:43.138Z,928.51
2023-04-16T04:57:43.152Z,928.50
2023-04-16T04:58:43.158Z,928.48
2023-04-16T04:59:43.834Z,928.47
2023-04-16T05:00:43.177Z,928.47
2023-04-16T05:01:43.182Z,928.45
2023-04-16T05:02:43.187Z,928.44
2023-04-16T05:03:43.280Z,928.41
2023-04-16T05:04:43.117Z,928.43
2023-04-16T05:05:43.067Z,928.38
2023-04-16T05:06:43.107Z,928.35
2023-04-16T05:07:43.116Z,928.34
2023-04-16T05:08:43.037Z,928.31
2023-04-16T05:09:43.027Z,928.30
2023-04-16T05:10:43.038Z,928.29
2023-04-16T05:11:43.047Z,928.27
2023-04-16T05:12:43.059Z,928.27
2023-04-16T05:13:43.773Z,928.26
2023-04-16T05:14:42.964Z,928.26
2023-04-16T05:15:42.982Z,928.24
2023-04-16T05:16:43.036Z,928.23
2023-04-16T05:17:43.036Z,928.22
2023-04-16T05:18:42.972Z,928.24
2023-04-16T05:19:43.006Z,928.24
2023-04-16T05:20:43.392Z,928.24
2023-04-16T05:21:42.931Z,928.26
2023-04-16T05:22:42.903Z,928.23
2023-04-16T05:23:43.002Z,928.23
2023-04-16T05:24:42.917Z,928.25
2023-04-16T05:25:43.029Z,928.22
2023-04-16T05:26:42.923Z,928.21
2023-04-16T05:27:42.901Z,928.20
2023-04-16T05:31:02.022Z,928.19
2023-04-16T05:32:02.250Z,928.16
2023-04-16T05:33:02.143Z,928.14
2023-04-16T05:34:02.337Z,928.14
2023-04-16T05:35:02.212Z,928.16
2023-04-16T05:36:02.143Z,928.17
2023-04-16T05:37:02.412Z,928.16
2023-04-16T05:38:02.164Z,928.16
2023-04-16T05:39:02.149Z,928.21
2023-04-16T05:40:02.122Z,928.19
2023-04-16T05:41:02.171Z,928.19
2023-04-16T05:42:02.120Z,928.20
2023-04-16T05:43:02.193Z,928.20
2023-04-16T05:44:03.081Z,928.21
2023-04-16T05:45:02.192Z,928.16
2023-04-16T05:46:02.073Z,928.15
2023-04-16T05:47:02.117Z,928.14
2023-04-16T05:48:02.052Z,928.13
2023-04-16T05:49:01.981Z,928.12
2023-04-16T05:50:02.042Z,928.13
2023-04-16T05:51:02.052Z,928.10
2023-04-16T05:52:01.923Z,928.07
2023-04-16T05:53:01.960Z,928.08
2023-04-16T05:54:01.963Z,928.06
2023-04-16T05:55:02.116Z,928.03
2023-04-16T05:56:02.033Z,928.02
2023-04-16T05:57:02.055Z,928.01
2023-04-16T05:58:01.941Z,928.04
2023-04-16T05:59:01.954Z,928.00
2023-04-16T06:00:01.912Z,928.06
2023-04-16T06:01:02.012Z,928.02
2023-04-16T06:02:01.928Z,928.02
2023-04-16T06:03:02.036Z,928.00
2023-04-16T06:04:02.163Z,927.98
2023-04-16T06:05:01.913Z,927.95
2023-04-16T06:06:01.915Z,927.94
2023-04-16T06:07:01.853Z,927.94
2023-04-16T06:08:01.840Z,927.92
2023-04-16T06:09:01.863Z,927.92
2023-04-16T06:10:01.765Z,927.92
2023-04-16T06:11:01.749Z,927.91
2023-04-16T06:12:01.797Z,927.93
2023-04-16T06:13:01.836Z,927.94
2023-04-16T06:14:01.749Z,927.96
2023-04-16T06:15:02.720Z,927.93
2023-04-16T06:16:01.814Z,927.93
2023-04-16T06:17:01.716Z,927.94
2023-04-16T06:18:01.755Z,927.93
2023-04-16T06:19:02.108Z,927.93
2023-04-16T06:20:01.733Z,927.92
2023-04-16T06:21:01.640Z,927.91
2023-04-16T06:22:01.678Z,927.91
2023-04-16T06:23:01.615Z,927.90
2023-04-16T06:24:01.614Z,927.87
2023-04-16T06:25:01.815Z,927.89
2023-04-16T06:26:01.658Z,927.88
2023-04-16T06:27:01.715Z,927.87
2023-04-16T06:28:01.567Z,927.88
2023-04-16T06:29:01.592Z,927.88
2023-04-16T06:30:01.579Z,927.89
2023-04-16T06:31:01.635Z,927.92
2023-04-16T06:32:01.512Z,927.94
2023-04-16T06:33:01.660Z,927.96
2023-04-16T06:34:01.502Z,927.96
2023-04-16T06:35:01.517Z,927.96
2023-04-16T06:36:02.036Z,927.96
2023-04-16T06:37:01.547Z,927.95
2023-04-16T06:38:01.452Z,927.94
2023-04-16T06:39:01.431Z,927.92
2023-04-16T06:40:01.440Z,927.90
2023-04-16T06:41:01.466Z,927.87
2023-04-16T06:42:01.458Z,927.88
2023-04-16T06:43:01.377Z,927.88
2023-04-16T06:44:01.465Z,927.89
2023-04-16T06:45:01.465Z,927.92
2023-04-16T06:46:01.374Z,927.93
2023-04-16T06:47:01.410Z,927.94
2023-04-16T06:48:01.440Z,927.96
2023-04-16T06:49:01.415Z,927.96
2023-04-16T06:50:01.441Z,927.97
2023-04-16T06:51:01.631Z,927.97
2023-04-16T06:52:02.447Z,927.94
2023-04-16T06:53:01.330Z,927.96
2023-04-16T06:54:01.444Z,927.96
2023-04-16T06:55:02.059Z,927.97
2023-04-16T06:56:01.442Z,927.97
2023-04-16T06:57:01.263Z,927.94
2023-04-16T06:58:01.268Z,927.91
2023-04-16T06:59:01.261Z,927.87
2023-04-16T07:00:01.304Z,927.83
2023-04-16T07:01:01.288Z,927.80
2023-04-16T07:02:01.322Z,927.79
2023-04-16T07:03:01.388Z,927.78
2023-04-16T07:04:01.427Z,927.77
2023-04-16T07:05:01.309Z,927.74
2023-04-16T07:06:01.125Z,927.73
2023-04-16T07:07:01.212Z,927.72
2023-04-16T07:08:01.746Z,927.72
2023-04-16T07:09:01.223Z,927.72
2023-04-16T07:10:01.179Z,927.72
2023-04-16T07:11:01.144Z,927.74
2023-04-16T07:12:01.146Z,927.72
2023-04-16T07:13:01.151Z,927.71
2023-04-16T07:14:01.061Z,927.74
2023-04-16T07:15:01.086Z,927.73
2023-04-16T07:16:01.586Z,927.74
2023-04-16T07:17:01.039Z,927.77
2023-04-16T07:18:01.086Z,927.79
2023-04-16T07:19:01.040Z,927.77
2023-04-16T07:20:01.012Z,927.79
2023-04-16T07:21:01.009Z,927.81
2023-04-16T07:22:01.471Z,927.79
2023-04-16T07:23:01.079Z,927.78
2023-04-16T07:24:01.068Z,927.82
2023-04-16T07:25:01.041Z,927.84
2023-04-16T07:26:00.992Z,927.84
2023-04-16T07:27:00.942Z,927.85
2023-04-16T07:28:00.920Z,927.84
2023-04-16T07:29:00.924Z,927.86
2023-04-16T07:30:00.910Z,927.87
2023-04-16T07:31:01.158Z,927.90
2023-04-16T07:32:00.903Z,927.89
2023-04-16T07:33:00.907Z,927.89
2023-04-16T07:34:00.882Z,927.91
2023-04-16T07:35:00.955Z,927.94
2023-04-16T07:36:00.898Z,927.95
2023-04-16T07:37:00.861Z,927.96
2023-04-16T07:38:01.682Z,927.99
2023-04-16T07:39:00.790Z,928.01
2023-04-16T07:40:00.901Z,928.01
2023-04-16T07:41:00.825Z,928.02
2023-04-16T07:42:00.783Z,928.04
2023-04-16T07:43:00.795Z,928.06
2023-04-16T07:44:00.750Z,928.06
2023-04-16T07:45:00.768Z,928.06
2023-04-16T07:46:00.787Z,928.05
2023-04-16T07:47:01.627Z,928.05
2023-04-16T07:48:00.783Z,928.04
2023-04-16T07:49:00.685Z,928.05
2023-04-16T07:50:00.795Z,928.03
2023-04-16T07:51:00.668Z,928.00
2023-04-16T07:52:00.655Z,928.01
2023-04-16T07:53:00.681Z,927.99
2023-04-16T07:54:00.767Z,927.99
2023-04-16T07:55:00.617Z,927.96
2023-04-16T07:56:00.638Z,927.97
2023-04-16T07:57:00.608Z,927.92
2023-04-16T07:58:01.251Z,927.95
2023-04-16T07:59:14.318Z,927.96
2023-04-16T08:00:00.616Z,927.95
2023-04-16T08:01:00.626Z,927.94
2023-04-16T08:02:00.591Z,927.91
2023-04-16T08:03:00.752Z,927.87
2023-04-16T08:04:00.684Z,927.88
2023-04-16T08:05:00.640Z,927.86
2023-04-16T08:06:00.539Z,927.84
2023-04-16T08:07:00.459Z,927.83
2023-04-16T08:08:00.570Z,927.81
2023-04-16T08:09:00.476Z,927.80
2023-04-16T08:10:00.456Z,927.81
2023-04-16T08:11:00.633Z,927.77
2023-04-16T08:12:00.509Z,927.73
2023-04-16T08:13:00.405Z,927.72
2023-04-16T08:14:00.500Z,927.73
2023-04-16T08:15:00.420Z,927.73
2023-04-16T08:16:00.471Z,927.72
2023-04-16T08:17:00.445Z,927.71
2023-04-16T08:18:00.527Z,927.72
2023-04-16T08:19:00.450Z,927.73
2023-04-16T08:20:00.459Z,927.74
2023-04-16T08:21:00.533Z,927.74
2023-04-16T08:22:00.382Z,927.73
2023-04-16T08:23:00.410Z,927.73
2023-04-16T08:24:00.372Z,927.74
2023-04-16T08:25:00.472Z,927.72
2023-04-16T08:26:00.390Z,927.71
2023-04-16T08:27:08.171Z,927.70
2023-04-16T08:28:00.588Z,927.68
2023-04-16T08:29:00.394Z,927.66
2023-04-16T08:30:00.323Z,927.66
2023-04-16T08:31:00.463Z,927.65
2023-04-16T08:32:00.324Z,927.67
2023-04-16T08:33:00.267Z,927.69
2023-04-16T08:34:00.240Z,927.71
2023-04-16T08:35:00.456Z,927.73
2023-04-16T08:36:00.772Z,927.75
2023-04-16T08:37:00.262Z,927.76
2023-04-16T08:38:02.196Z,927.78
2023-04-16T08:39:00.176Z,927.77
2023-04-16T08:40:00.187Z,927.79
2023-04-16T08:41:00.187Z,927.77
2023-04-16T08:42:00.194Z,927.76
2023-04-16T08:43:00.201Z,927.79
2023-04-16T08:44:00.209Z,927.79
2023-04-16T08:45:00.201Z,927.83
2023-04-16T08:46:00.135Z,927.85
2023-04-16T08:47:00.207Z,927.85
2023-04-16T08:48:00.190Z,927.86
2023-04-16T08:49:01.057Z,927.86
2023-04-16T08:50:00.046Z,927.84
2023-04-16T08:51:00.047Z,927.81
2023-04-16T08:52:00.052Z,927.81
2023-04-16T08:53:00.065Z,927.79
2023-04-16T08:54:00.084Z,927.75
2023-04-16T08:55:00.153Z,927.78
2023-04-16T08:56:01.203Z,927.78
2023-04-16T08:57:00.136Z,927.77
2023-04-16T08:58:00.014Z,927.77
2023-04-16T08:58:59.998Z,927.75
2023-04-16T09:00:00.010Z,927.75
2023-04-16T09:01:01.043Z,927.74
2023-04-16T09:02:00.162Z,927.73
2023-04-16T09:03:00.149Z,927.72
2023-04-16T09:04:00.131Z,927.74
2023-04-16T09:05:00.110Z,927.74
2023-04-16T09:05:59.945Z,927.75
2023-04-16T09:06:59.947Z,927.77
2023-04-16T09:08:00.054Z,927.77
2023-04-16T09:08:59.986Z,927.77
2023-04-16T09:09:59.862Z,927.80
2023-04-16T09:10:59.865Z,927.79
2023-04-16T09:11:59.971Z,927.82
2023-04-16T09:13:01.219Z,927.81
2023-04-16T09:13:59.820Z,927.79
2023-04-16T09:14:59.891Z,927.81
2023-04-16T09:16:00.348Z,927.80
2023-04-16T09:16:59.892Z,927.80
2023-04-16T09:17:59.873Z,927.80
2023-04-16T09:18:59.812Z,927.80
2023-04-16T09:19:59.818Z,927.80
2023-04-16T09:20:59.837Z,927.81
2023-04-16T09:21:59.814Z,927.81
2023-04-16T09:22:59.721Z,927.85
2023-04-16T09:23:59.648Z,927.87
2023-04-16T09:24:59.740Z,927.89
2023-04-16T09:25:59.683Z,927.90
2023-04-16T09:26:59.646Z,927.91
2023-04-16T09:27:59.667Z,927.91
2023-04-16T09:28:59.679Z,927.91
2023-04-16T09:29:59.693Z,927.92
2023-04-16T09:30:59.590Z,927.94
2023-04-16T09:31:59.791Z,927.98
2023-04-16T09:32:59.616Z,928.00
2023-04-16T09:33:59.614Z,928.02
2023-04-16T09:34:59.604Z,928.03
2023-04-16T09:35:59.607Z,928.02
2023-04-16T09:36:59.631Z,928.03
2023-04-16T09:37:59.622Z,928.06
2023-04-16T09:38:59.561Z,928.08
2023-04-16T09:39:59.636Z,928.10
2023-04-16T09:40:59.557Z,928.15
2023-04-16T09:41:59.566Z,928.17
2023-04-16T09:42:59.481Z,928.18
2023-04-16T09:43:59.473Z,928.19
2023-04-16T09:45:01.438Z,928.20
2023-04-16T09:45:59.532Z,928.20
2023-04-16T09:46:59.583Z,928.20
2023-04-16T09:47:59.510Z,928.20
2023-04-16T09:48:59.414Z,928.24
2023-04-16T09:49:59.421Z,928.30
2023-04-16T09:50:59.420Z,928.32
2023-04-16T09:51:59.511Z,928.32
2023-04-16T09:52:59.329Z,928.31
2023-04-16T09:53:59.341Z,928.31
2023-04-16T09:54:59.333Z,928.36
2023-04-16T09:55:59.354Z,928.40
2023-04-16T09:56:59.362Z,928.43
2023-04-16T09:57:59.489Z,928.45
2023-04-16T09:58:59.279Z,928.48
2023-04-16T09:59:59.585Z,928.53
2023-04-16T10:00:59.315Z,928.57
2023-04-16T10:02:14.343Z,928.60
2023-04-16T10:03:00.277Z,928.63
2023-04-16T10:03:59.423Z,928.64
2023-04-16T10:04:59.223Z,928.64
2023-04-16T10:05:59.217Z,928.66
2023-04-16T10:06:59.220Z,928.68
2023-04-16T10:07:59.230Z,928.68
2023-04-16T10:08:59.571Z,928.68
2023-04-16T10:09:59.244Z,928.69
2023-04-16T10:10:59.166Z,928.70
2023-04-16T10:11:59.153Z,928.70
2023-04-16T10:12:59.161Z,928.71
2023-04-16T10:13:59.176Z,928.72
2023-04-16T10:14:59.211Z,928.74
2023-04-16T10:15:59.167Z,928.77
2023-04-16T10:16:59.209Z,928.78
2023-04-16T10:17:59.149Z,928.79
2023-04-16T10:18:59.197Z,928.80
2023-04-16T10:19:59.174Z,928.82
2023-04-16T10:20:59.143Z,928.83
2023-04-16T10:21:59.120Z,928.83
2023-04-16T10:22:59.022Z,928.85
2023-04-16T10:23:59.039Z,928.86
2023-04-16T10:24:59.269Z,928.87
2023-04-16T10:25:59.046Z,928.88
2023-04-16T10:26:59.031Z,928.88
2023-04-16T10:27:59.048Z,928.87
2023-04-16T10:28:58.969Z,928.87
2023-04-16T10:29:59.000Z,928.89
2023-04-16T10:30:59.039Z,928.91
2023-04-16T10:31:59.008Z,928.91
2023-04-16T10:33:00.555Z,928.93
2023-04-16T10:33:59.588Z,928.93
2023-04-16T10:34:58.853Z,928.97
2023-04-16T10:36:06.984Z,928.95
2023-04-16T10:36:58.942Z,928.96
2023-04-16T10:37:58.869Z,929.00
2023-04-16T10:38:59.131Z,929.00
2023-04-16T10:39:58.961Z,929.00
2023-04-16T10:40:58.829Z,929.00
2023-04-16T10:41:58.872Z,929.03
2023-04-16T10:42:58.838Z,929.01
2023-04-16T10:43:58.852Z,929.07
2023-04-16T10:44:59.225Z,929.08
2023-04-16T10:46:00.118Z,929.04
2023-04-16T10:46:58.770Z,929.04
2023-04-16T10:47:58.896Z,929.05
2023-04-16T10:48:58.841Z,929.05
2023-04-16T10:49:58.784Z,929.05
2023-04-16T10:50:58.792Z,929.07
2023-04-16T10:51:58.805Z,929.06
2023-04-16T10:52:58.811Z,929.08
2023-04-16T10:53:58.720Z,929.09
2023-04-16T10:54:58.715Z,929.09
2023-04-16T10:55:58.788Z,929.10
2023-04-16T10:56:58.739Z,929.10
2023-04-16T10:57:58.737Z,929.10
2023-04-16T10:58:58.773Z,929.11
2023-04-16T10:59:58.646Z,929.11
2023-04-16T11:00:58.892Z,929.13
2023-04-16T11:01:58.822Z,929.13
2023-04-16T11:02:58.871Z,929.11
2023-04-16T11:03:58.809Z,929.09
2023-04-16T11:04:58.731Z,929.11
2023-04-16T11:05:59.099Z,929.08
2023-04-16T11:06:58.552Z,929.08
2023-04-16T11:07:58.605Z,929.08
2023-04-16T11:08:58.605Z,929.10
2023-04-16T11:09:58.518Z,929.12
2023-04-16T11:10:58.526Z,929.14
2023-04-16T11:11:58.522Z,929.16
2023-04-16T11:12:58.539Z,929.17
2023-04-16T11:13:58.544Z,929.18
2023-04-16T11:14:58.706Z,929.19
2023-04-16T11:15:58.567Z,929.20
2023-04-16T11:16:58.523Z,929.22
2023-04-16T11:17:58.562Z,929.23
2023-04-16T11:18:58.495Z,929.26
2023-04-16T11:19:58.861Z,929.25
2023-04-16T11:20:58.463Z,929.26
2023-04-16T11:21:58.392Z,929.27
2023-04-16T11:22:58.394Z,929.27
2023-04-16T11:23:58.376Z,929.26
2023-04-16T11:24:58.361Z,929.26
2023-04-16T11:25:58.371Z,929.27
2023-04-16T11:26:58.370Z,929.29
2023-04-16T11:27:58.395Z,929.30
2023-04-16T11:28:58.284Z,929.30
2023-04-16T11:29:58.292Z,929.29
2023-04-16T11:30:58.341Z,929.28
2023-04-16T11:31:58.309Z,929.30
2023-04-16T11:32:58.464Z,929.29
2023-04-16T11:33:58.321Z,929.29
2023-04-16T11:34:58.226Z,929.33
2023-04-16T11:35:58.238Z,929.34
2023-04-16T11:36:58.236Z,929.36
2023-04-16T11:37:58.255Z,929.36
2023-04-16T11:38:58.228Z,929.38
2023-04-16T11:39:58.257Z,929.39
2023-04-16T11:40:58.160Z,929.39
2023-04-16T11:41:58.196Z,929.39
2023-04-16T11:42:59.774Z,929.40
2023-04-16T11:43:58.187Z,929.40
2023-04-16T11:44:58.189Z,929.40
2023-04-16T11:45:58.097Z,929.39
2023-04-16T11:46:58.276Z,929.38
2023-04-16T11:47:58.234Z,929.38
2023-04-16T11:48:58.130Z,929.37
2023-04-16T11:49:58.117Z,929.38
2023-04-16T11:50:58.146Z,929.38
2023-04-16T11:51:58.066Z,929.38
2023-04-16T11:52:58.068Z,929.39
2023-04-16T11:53:58.071Z,929.41
2023-04-16T11:54:58.087Z,929.40
2023-04-16T11:55:58.061Z,929.39
2023-04-16T11:56:58.070Z,929.39
2023-04-16T11:57:58.819Z,929.39
2023-04-16T11:58:58.001Z,929.39
2023-04-16T12:00:02.996Z,929.39
2023-04-16T12:00:59.661Z,929.41
2023-04-16T12:01:58.085Z,929.42
2023-04-16T12:02:58.034Z,929.40
2023-04-16T12:03:58.346Z,929.40
2023-04-16T12:04:57.974Z,929.40
2023-04-16T12:05:57.951Z,929.44
2023-04-16T12:06:58.130Z,929.39
2023-04-16T12:07:57.960Z,929.40
2023-04-16T12:08:58.288Z,929.40
2023-04-16T12:09:57.950Z,929.41
2023-04-16T12:10:57.870Z,929.41
2023-04-16T12:11:57.899Z,929.44
2023-04-16T12:12:58.104Z,929.45
2023-04-16T12:13:57.865Z,929.50
2023-04-16T12:14:57.810Z,929.47
2023-04-16T12:15:57.803Z,929.45
2023-04-16T12:16:57.940Z,929.44
2023-04-16T12:17:57.911Z,929.44
2023-04-16T12:18:58.667Z,929.44
2023-04-16T12:19:58.680Z,929.41
2023-04-16T12:20:58.636Z,929.41
2023-04-16T12:21:57.820Z,929.42
2023-04-16T12:22:57.726Z,929.41
2023-04-16T12:23:57.764Z,929.41
2023-04-16T12:24:58.086Z,929.43
2023-04-16T12:25:57.672Z,929.43
2023-04-16T12:26:57.727Z,929.43
2023-04-16T12:27:57.698Z,929.43
2023-04-16T12:28:57.663Z,929.43
2023-04-16T12:29:57.706Z,929.45
2023-04-16T12:30:58.168Z,929.48